sensor_id;sensor_type;location;lat;lon;timestamp;P1;durP1;ratioP1;P2;durP2;ratioP2
42338;SDS011;27993;45.392;10.918;2022-09-06T00:04:21;15.07;;;9.20;;
42338;SDS011;27993;45.392;10.918;2022-09-06T00:09:22;17.33;;;10.20;;
42338;SDS011;27993;45.392;10.918;2022-09-06T00:14:23;13.70;;;9.17;;
42338;SDS011;27993;45.392;10.918;2022-09-06T00:19:24;11.97;;;8.93;;
42338;SDS011;27993;45.392;10.918;2022-09-06T00:24:25;12.53;;;9.10;;
42338;SDS011;27993;45.392;10.918;2022-09-06T00:29:26;10.00;;;7.30;;
42338;SDS011;27993;45.392;10.918;2022-09-06T00:34:28;11.10;;;7.43;;
42338;SDS011;27993;45.392;10.918;2022-09-06T00:39:29;13.13;;;7.50;;
42338;SDS011;27993;45.392;10.918;2022-09-06T00:44:30;9.43;;;6.47;;
42338;SDS011;27993;45.392;10.918;2022-09-06T00:49:34;9.00;;;6.73;;
42338;SDS011;27993;45.392;10.918;2022-09-06T00:52:09;8.75;;;6.75;;
42338;SDS011;27993;45.392;10.918;2022-09-06T00:54:43;22.60;;;7.05;;
42338;SDS011;27993;45.392;10.918;2022-09-06T00:59:45;11.70;;;7.15;;
42338;SDS011;27993;45.392;10.918;2022-09-06T01:02:16;7.95;;;5.75;;
42338;SDS011;27993;45.392;10.918;2022-09-06T01:12:28;7.55;;;6.22;;
42338;SDS011;27993;45.392;10.918;2022-09-06T01:15:08;9.35;;;6.10;;
42338;SDS011;27993;45.392;10.918;2022-09-06T01:29:50;10.32;;;7.05;;
42338;SDS011;27993;45.392;10.918;2022-09-06T01:32:33;13.80;;;7.07;;
42338;SDS011;27993;45.392;10.918;2022-09-06T01:35:35;9.38;;;7.37;;
42338;SDS011;27993;45.392;10.918;2022-09-06T01:38:11;8.77;;;7.07;;
42338;SDS011;27993;45.392;10.918;2022-09-06T01:40:43;7.90;;;7.03;;
42338;SDS011;27993;45.392;10.918;2022-09-06T01:46:06;8.57;;;7.60;;
42338;SDS011;27993;45.392;10.918;2022-09-06T01:51:51;13.55;;;8.57;;
42338;SDS011;27993;45.392;10.918;2022-09-06T02:00:14;8.40;;;7.10;;
42338;SDS011;27993;45.392;10.918;2022-09-06T02:02:52;8.75;;;7.87;;
42338;SDS011;27993;45.392;10.918;2022-09-06T02:05:40;9.20;;;7.57;;
42338;SDS011;27993;45.392;10.918;2022-09-06T02:08:28;10.88;;;7.57;;
42338;SDS011;27993;45.392;10.918;2022-09-06T02:11:04;8.05;;;7.20;;
42338;SDS011;27993;45.392;10.918;2022-09-06T02:16:30;9.75;;;8.10;;
42338;SDS011;27993;45.392;10.918;2022-09-06T02:19:09;12.32;;;7.47;;
42338;SDS011;27993;45.392;10.918;2022-09-06T02:21:44;13.40;;;8.75;;
42338;SDS011;27993;45.392;10.918;2022-09-06T02:24:18;10.07;;;8.20;;
42338;SDS011;27993;45.392;10.918;2022-09-06T02:26:53;12.15;;;7.00;;
42338;SDS011;27993;45.392;10.918;2022-09-06T02:31:59;9.17;;;8.10;;
42338;SDS011;27993;45.392;10.918;2022-09-06T02:34:36;12.95;;;8.05;;
42338;SDS011;27993;45.392;10.918;2022-09-06T02:37:09;9.23;;;7.90;;
42338;SDS011;27993;45.392;10.918;2022-09-06T02:39:41;9.50;;;7.60;;
42338;SDS011;27993;45.392;10.918;2022-09-06T02:44:44;10.60;;;8.63;;
42338;SDS011;27993;45.392;10.918;2022-09-06T02:49:45;10.10;;;7.67;;
42338;SDS011;27993;45.392;10.918;2022-09-06T02:52:16;20.73;;;8.95;;
42338;SDS011;27993;45.392;10.918;2022-09-06T02:57:17;9.90;;;8.60;;
42338;SDS011;27993;45.392;10.918;2022-09-06T03:02:18;15.63;;;9.93;;
42338;SDS011;27993;45.392;10.918;2022-09-06T03:07:19;18.60;;;9.00;;
42338;SDS011;27993;45.392;10.918;2022-09-06T03:12:20;13.63;;;9.00;;
42338;SDS011;27993;45.392;10.918;2022-09-06T03:14:51;16.50;;;8.77;;
42338;SDS011;27993;45.392;10.918;2022-09-06T03:19:52;12.17;;;8.17;;
42338;SDS011;27993;45.392;10.918;2022-09-06T03:24:53;13.17;;;8.90;;
42338;SDS011;27993;45.392;10.918;2022-09-06T03:27:24;9.23;;;8.18;;
42338;SDS011;27993;45.392;10.918;2022-09-06T03:32:25;9.93;;;9.00;;
42338;SDS011;27993;45.392;10.918;2022-09-06T03:37:27;14.70;;;8.10;;
42338;SDS011;27993;45.392;10.918;2022-09-06T03:39:57;10.30;;;7.87;;
42338;SDS011;27993;45.392;10.918;2022-09-06T03:44:59;10.13;;;8.63;;
42338;SDS011;27993;45.392;10.918;2022-09-06T03:47:30;14.82;;;8.98;;
42338;SDS011;27993;45.392;10.918;2022-09-06T03:52:31;11.43;;;9.73;;
42338;SDS011;27993;45.392;10.918;2022-09-06T03:57:33;14.77;;;8.82;;
42338;SDS011;27993;45.392;10.918;2022-09-06T04:00:03;15.63;;;8.80;;
42338;SDS011;27993;45.392;10.918;2022-09-06T04:02:34;11.07;;;9.43;;
42338;SDS011;27993;45.392;10.918;2022-09-06T04:07:36;15.93;;;8.37;;
42338;SDS011;27993;45.392;10.918;2022-09-06T04:12:37;14.27;;;7.53;;
42338;SDS011;27993;45.392;10.918;2022-09-06T04:17:42;10.73;;;8.03;;
42338;SDS011;27993;45.392;10.918;2022-09-06T04:20:14;15.52;;;9.13;;
42338;SDS011;27993;45.392;10.918;2022-09-06T04:25:15;16.03;;;8.40;;
42338;SDS011;27993;45.392;10.918;2022-09-06T04:27:46;11.43;;;9.48;;
42338;SDS011;27993;45.392;10.918;2022-09-06T04:30:16;11.90;;;9.35;;
42338;SDS011;27993;45.392;10.918;2022-09-06T04:32:47;12.88;;;8.02;;
42338;SDS011;27993;45.392;10.918;2022-09-06T04:37:48;15.73;;;8.73;;
42338;SDS011;27993;45.392;10.918;2022-09-06T04:40:19;14.65;;;9.60;;
42338;SDS011;27993;45.392;10.918;2022-09-06T04:45:20;20.77;;;8.47;;
42338;SDS011;27993;45.392;10.918;2022-09-06T04:50:21;18.13;;;9.03;;
42338;SDS011;27993;45.392;10.918;2022-09-06T04:52:51;11.40;;;8.45;;
42338;SDS011;27993;45.392;10.918;2022-09-06T04:55:22;9.38;;;7.97;;
42338;SDS011;27993;45.392;10.918;2022-09-06T04:57:54;9.05;;;7.80;;
42338;SDS011;27993;45.392;10.918;2022-09-06T05:00:27;18.95;;;8.52;;
42338;SDS011;27993;45.392;10.918;2022-09-06T05:03:00;10.63;;;9.32;;
42338;SDS011;27993;45.392;10.918;2022-09-06T05:05:31;11.63;;;8.77;;
42338;SDS011;27993;45.392;10.918;2022-09-06T05:08:01;13.82;;;8.85;;
42338;SDS011;27993;45.392;10.918;2022-09-06T05:13:03;15.97;;;7.83;;
42338;SDS011;27993;45.392;10.918;2022-09-06T05:18:04;17.93;;;7.47;;
42338;SDS011;27993;45.392;10.918;2022-09-06T05:20:35;8.93;;;7.28;;
42338;SDS011;27993;45.392;10.918;2022-09-06T05:25:36;14.17;;;8.00;;
42338;SDS011;27993;45.392;10.918;2022-09-06T05:30:37;14.20;;;7.13;;
42338;SDS011;27993;45.392;10.918;2022-09-06T05:33:09;10.43;;;7.70;;
42338;SDS011;27993;45.392;10.918;2022-09-06T05:35:40;9.70;;;8.43;;
42338;SDS011;27993;45.392;10.918;2022-09-06T05:38:11;11.20;;;8.43;;
42338;SDS011;27993;45.392;10.918;2022-09-06T05:40:41;13.15;;;7.15;;
42338;SDS011;27993;45.392;10.918;2022-09-06T05:43:12;16.30;;;8.90;;
42338;SDS011;27993;45.392;10.918;2022-09-06T05:45:42;15.95;;;9.90;;
42338;SDS011;27993;45.392;10.918;2022-09-06T05:48:14;13.40;;;9.18;;
42338;SDS011;27993;45.392;10.918;2022-09-06T05:50:44;10.35;;;9.27;;
42338;SDS011;27993;45.392;10.918;2022-09-06T05:53:15;14.05;;;9.60;;
42338;SDS011;27993;45.392;10.918;2022-09-06T05:55:46;9.77;;;8.77;;
42338;SDS011;27993;45.392;10.918;2022-09-06T05:58:16;11.93;;;8.25;;
42338;SDS011;27993;45.392;10.918;2022-09-06T06:00:47;13.18;;;8.77;;
42338;SDS011;27993;45.392;10.918;2022-09-06T06:03:17;13.55;;;8.07;;
42338;SDS011;27993;45.392;10.918;2022-09-06T06:05:48;20.90;;;8.52;;
42338;SDS011;27993;45.392;10.918;2022-09-06T06:08:18;30.20;;;9.65;;
42338;SDS011;27993;45.392;10.918;2022-09-06T06:10:49;18.98;;;9.35;;
42338;SDS011;27993;45.392;10.918;2022-09-06T06:13:20;27.37;;;10.23;;
42338;SDS011;27993;45.392;10.918;2022-09-06T06:15:50;20.17;;;9.70;;
42338;SDS011;27993;45.392;10.918;2022-09-06T06:18:21;16.15;;;10.20;;
42338;SDS011;27993;45.392;10.918;2022-09-06T06:20:52;18.62;;;10.00;;
42338;SDS011;27993;45.392;10.918;2022-09-06T06:23:50;18.52;;;10.65;;
42338;SDS011;27993;45.392;10.918;2022-09-06T06:26:23;26.45;;;9.90;;
42338;SDS011;27993;45.392;10.918;2022-09-06T06:28:55;25.60;;;9.27;;
42338;SDS011;27993;45.392;10.918;2022-09-06T06:31:28;22.02;;;10.50;;
42338;SDS011;27993;45.392;10.918;2022-09-06T06:34:00;12.90;;;10.65;;
42338;SDS011;27993;45.392;10.918;2022-09-06T06:36:34;16.70;;;9.55;;
42338;SDS011;27993;45.392;10.918;2022-09-06T06:39:05;20.55;;;9.07;;
42338;SDS011;27993;45.392;10.918;2022-09-06T06:41:37;15.82;;;9.90;;
42338;SDS011;27993;45.392;10.918;2022-09-06T06:44:08;16.77;;;10.10;;
42338;SDS011;27993;45.392;10.918;2022-09-06T06:46:38;23.30;;;10.00;;
42338;SDS011;27993;45.392;10.918;2022-09-06T06:49:10;23.30;;;9.85;;
42338;SDS011;27993;45.392;10.918;2022-09-06T06:51:41;19.75;;;10.57;;
42338;SDS011;27993;45.392;10.918;2022-09-06T06:54:11;17.30;;;11.80;;
42338;SDS011;27993;45.392;10.918;2022-09-06T06:56:42;24.95;;;11.55;;
42338;SDS011;27993;45.392;10.918;2022-09-06T06:59:14;21.45;;;10.95;;
42338;SDS011;27993;45.392;10.918;2022-09-06T07:01:45;30.17;;;12.25;;
42338;SDS011;27993;45.392;10.918;2022-09-06T07:04:15;22.50;;;12.63;;
42338;SDS011;27993;45.392;10.918;2022-09-06T07:06:47;21.23;;;12.52;;
42338;SDS011;27993;45.392;10.918;2022-09-06T07:09:19;13.23;;;11.15;;
42338;SDS011;27993;45.392;10.918;2022-09-06T07:11:51;19.40;;;11.10;;
42338;SDS011;27993;45.392;10.918;2022-09-06T07:14:21;24.50;;;11.07;;
42338;SDS011;27993;45.392;10.918;2022-09-06T07:16:52;21.83;;;9.93;;
42338;SDS011;27993;45.392;10.918;2022-09-06T07:19:27;14.55;;;10.35;;
42338;SDS011;27993;45.392;10.918;2022-09-06T07:21:57;14.32;;;10.55;;
42338;SDS011;27993;45.392;10.918;2022-09-06T07:24:28;12.52;;;8.95;;
42338;SDS011;27993;45.392;10.918;2022-09-06T07:26:59;15.90;;;10.85;;
42338;SDS011;27993;45.392;10.918;2022-09-06T07:29:29;10.80;;;8.63;;
42338;SDS011;27993;45.392;10.918;2022-09-06T07:32:00;11.75;;;10.25;;
42338;SDS011;27993;45.392;10.918;2022-09-06T07:34:31;11.48;;;9.88;;
42338;SDS011;27993;45.392;10.918;2022-09-06T07:37:02;9.88;;;8.88;;
42338;SDS011;27993;45.392;10.918;2022-09-06T07:39:33;10.88;;;8.98;;
42338;SDS011;27993;45.392;10.918;2022-09-06T07:42:06;10.02;;;9.07;;
42338;SDS011;27993;45.392;10.918;2022-09-06T07:44:36;19.67;;;8.25;;
42338;SDS011;27993;45.392;10.918;2022-09-06T07:47:07;11.95;;;8.70;;
42338;SDS011;27993;45.392;10.918;2022-09-06T07:49:39;10.65;;;9.57;;
42338;SDS011;27993;45.392;10.918;2022-09-06T07:52:10;10.98;;;10.02;;
42338;SDS011;27993;45.392;10.918;2022-09-06T07:54:40;10.93;;;9.77;;
42338;SDS011;27993;45.392;10.918;2022-09-06T07:57:11;9.38;;;8.57;;
42338;SDS011;27993;45.392;10.918;2022-09-06T07:59:42;11.45;;;10.35;;
42338;SDS011;27993;45.392;10.918;2022-09-06T08:02:12;11.05;;;10.15;;
42338;SDS011;27993;45.392;10.918;2022-09-06T08:04:43;12.90;;;8.80;;
42338;SDS011;27993;45.392;10.918;2022-09-06T08:07:14;11.18;;;8.43;;
42338;SDS011;27993;45.392;10.918;2022-09-06T08:12:33;14.55;;;8.63;;
42338;SDS011;27993;45.392;10.918;2022-09-06T08:15:04;10.95;;;8.38;;
42338;SDS011;27993;45.392;10.918;2022-09-06T08:17:35;9.02;;;8.20;;
42338;SDS011;27993;45.392;10.918;2022-09-06T08:20:06;9.43;;;8.52;;
42338;SDS011;27993;45.392;10.918;2022-09-06T08:22:37;16.80;;;9.98;;
42338;SDS011;27993;45.392;10.918;2022-09-06T08:25:08;11.80;;;10.68;;
42338;SDS011;27993;45.392;10.918;2022-09-06T08:27:39;11.75;;;9.68;;
42338;SDS011;27993;45.392;10.918;2022-09-06T08:30:10;11.90;;;10.70;;
42338;SDS011;27993;45.392;10.918;2022-09-06T08:32:40;11.25;;;10.15;;
42338;SDS011;27993;45.392;10.918;2022-09-06T08:35:11;23.33;;;15.85;;
42338;SDS011;27993;45.392;10.918;2022-09-06T08:37:42;19.83;;;13.23;;
42338;SDS011;27993;45.392;10.918;2022-09-06T08:40:13;13.02;;;11.12;;
42338;SDS011;27993;45.392;10.918;2022-09-06T08:42:49;17.80;;;12.18;;
42338;SDS011;27993;45.392;10.918;2022-09-06T08:45:20;25.62;;;19.27;;
42338;SDS011;27993;45.392;10.918;2022-09-06T08:47:52;29.33;;;21.73;;
42338;SDS011;27993;45.392;10.918;2022-09-06T08:50:23;26.62;;;21.73;;
42338;SDS011;27993;45.392;10.918;2022-09-06T08:52:59;24.77;;;19.10;;
42338;SDS011;27993;45.392;10.918;2022-09-06T08:55:38;15.73;;;14.07;;
42338;SDS011;27993;45.392;10.918;2022-09-06T09:00:54;21.77;;;14.98;;
42338;SDS011;27993;45.392;10.918;2022-09-06T09:03:31;19.83;;;17.50;;
42338;SDS011;27993;45.392;10.918;2022-09-06T09:06:06;16.40;;;14.65;;
42338;SDS011;27993;45.392;10.918;2022-09-06T09:08:44;19.33;;;14.07;;
42338;SDS011;27993;45.392;10.918;2022-09-06T09:11:20;17.67;;;15.93;;
42338;SDS011;27993;45.392;10.918;2022-09-06T09:13:54;15.55;;;13.98;;
42338;SDS011;27993;45.392;10.918;2022-09-06T09:16:49;15.13;;;13.88;;
42338;SDS011;27993;45.392;10.918;2022-09-06T09:19:21;21.62;;;15.00;;
42338;SDS011;27993;45.392;10.918;2022-09-06T09:21:51;26.92;;;19.00;;
42338;SDS011;27993;45.392;10.918;2022-09-06T09:24:22;17.12;;;14.87;;
42338;SDS011;27993;45.392;10.918;2022-09-06T09:26:55;21.77;;;19.52;;
42338;SDS011;27993;45.392;10.918;2022-09-06T09:29:43;23.08;;;18.70;;
42338;SDS011;27993;45.392;10.918;2022-09-06T09:32:33;24.70;;;20.45;;
42338;SDS011;27993;45.392;10.918;2022-09-06T09:35:24;22.15;;;17.60;;
42338;SDS011;27993;45.392;10.918;2022-09-06T09:38:09;16.65;;;15.05;;
42338;SDS011;27993;45.392;10.918;2022-09-06T09:40:53;13.73;;;12.35;;
42338;SDS011;27993;45.392;10.918;2022-09-06T09:48:40;15.18;;;13.55;;
42338;SDS011;27993;45.392;10.918;2022-09-06T09:51:33;17.90;;;12.73;;
42338;SDS011;27993;45.392;10.918;2022-09-06T09:54:32;15.50;;;12.50;;
42338;SDS011;27993;45.392;10.918;2022-09-06T09:57:09;14.68;;;11.73;;
42338;SDS011;27993;45.392;10.918;2022-09-06T09:59:47;16.30;;;12.73;;
42338;SDS011;27993;45.392;10.918;2022-09-06T10:02:24;16.10;;;11.27;;
42338;SDS011;27993;45.392;10.918;2022-09-06T10:07:45;11.30;;;10.20;;
42338;SDS011;27993;45.392;10.918;2022-09-06T10:13:05;19.20;;;9.02;;
42338;SDS011;27993;45.392;10.918;2022-09-06T10:15:50;9.93;;;8.93;;
42338;SDS011;27993;45.392;10.918;2022-09-06T10:18:30;13.82;;;9.52;;
42338;SDS011;27993;45.392;10.918;2022-09-06T10:26:36;12.07;;;8.88;;
42338;SDS011;27993;45.392;10.918;2022-09-06T10:29:44;9.18;;;8.27;;
42338;SDS011;27993;45.392;10.918;2022-09-06T10:35:24;8.80;;;7.47;;
42338;SDS011;27993;45.392;10.918;2022-09-06T10:43:39;8.43;;;7.47;;
42338;SDS011;27993;45.392;10.918;2022-09-06T10:46:16;10.15;;;8.05;;
42338;SDS011;27993;45.392;10.918;2022-09-06T10:48:50;10.25;;;9.15;;
42338;SDS011;27993;45.392;10.918;2022-09-06T10:54:22;15.98;;;7.93;;
42338;SDS011;27993;45.392;10.918;2022-09-06T10:59:52;24.87;;;8.90;;
42338;SDS011;27993;45.392;10.918;2022-09-06T11:05:18;7.55;;;3.65;;
42338;SDS011;27993;45.392;10.918;2022-09-06T11:07:54;6.07;;;4.22;;
42338;SDS011;27993;45.392;10.918;2022-09-06T11:10:30;9.80;;;5.12;;
42338;SDS011;27993;45.392;10.918;2022-09-06T11:13:10;6.47;;;4.37;;
42338;SDS011;27993;45.392;10.918;2022-09-06T11:18:29;7.05;;;4.87;;
42338;SDS011;27993;45.392;10.918;2022-09-06T11:24:13;14.80;;;5.72;;
42338;SDS011;27993;45.392;10.918;2022-09-06T11:26:57;7.10;;;5.68;;
42338;SDS011;27993;45.392;10.918;2022-09-06T11:29:48;11.88;;;6.62;;
42338;SDS011;27993;45.392;10.918;2022-09-06T11:34:59;10.73;;;5.43;;
42338;SDS011;27993;45.392;10.918;2022-09-06T11:37:35;13.90;;;5.25;;
42338;SDS011;27993;45.392;10.918;2022-09-06T11:40:13;12.68;;;5.03;;
42338;SDS011;27993;45.392;10.918;2022-09-06T11:53:24;17.05;;;5.10;;
42338;SDS011;27993;45.392;10.918;2022-09-06T11:58:31;4.97;;;4.07;;
42338;SDS011;27993;45.392;10.918;2022-09-06T12:06:21;9.13;;;4.75;;
42338;SDS011;27993;45.392;10.918;2022-09-06T12:08:59;5.00;;;4.30;;
42338;SDS011;27993;45.392;10.918;2022-09-06T12:19:57;7.75;;;5.32;;
42338;SDS011;27993;45.392;10.918;2022-09-06T12:25:14;5.97;;;4.07;;
42338;SDS011;27993;45.392;10.918;2022-09-06T12:28:00;4.82;;;3.97;;
42338;SDS011;27993;45.392;10.918;2022-09-06T12:30:37;5.82;;;3.67;;
42338;SDS011;27993;45.392;10.918;2022-09-06T12:33:15;4.62;;;4.03;;
42338;SDS011;27993;45.392;10.918;2022-09-06T12:36:11;5.18;;;4.30;;
42338;SDS011;27993;45.392;10.918;2022-09-06T12:39:08;7.35;;;5.28;;
42338;SDS011;27993;45.392;10.918;2022-09-06T12:41:45;9.95;;;4.60;;
42338;SDS011;27993;45.392;10.918;2022-09-06T12:44:27;8.82;;;4.95;;
42338;SDS011;27993;45.392;10.918;2022-09-06T12:47:39;5.30;;;4.70;;
42338;SDS011;27993;45.392;10.918;2022-09-06T12:50:05;8.77;;;4.72;;
42338;SDS011;27993;45.392;10.918;2022-09-06T12:52:45;6.50;;;3.78;;
42338;SDS011;27993;45.392;10.918;2022-09-06T12:55:20;6.00;;;4.55;;
42338;SDS011;27993;45.392;10.918;2022-09-06T12:57:57;5.43;;;4.43;;
42338;SDS011;27993;45.392;10.918;2022-09-06T13:00:51;6.68;;;4.53;;
42338;SDS011;27993;45.392;10.918;2022-09-06T13:06:01;14.50;;;4.03;;
42338;SDS011;27993;45.392;10.918;2022-09-06T13:08:38;5.57;;;4.25;;
42338;SDS011;27993;45.392;10.918;2022-09-06T13:13:47;10.65;;;4.47;;
42338;SDS011;27993;45.392;10.918;2022-09-06T13:16:23;12.52;;;4.65;;
42338;SDS011;27993;45.392;10.918;2022-09-06T13:19:18;5.20;;;4.20;;
42338;SDS011;27993;45.392;10.918;2022-09-06T13:21:58;8.20;;;4.22;;
42338;SDS011;27993;45.392;10.918;2022-09-06T13:30:36;7.37;;;4.62;;
42338;SDS011;27993;45.392;10.918;2022-09-06T13:33:21;9.00;;;4.78;;
42338;SDS011;27993;45.392;10.918;2022-09-06T13:38:43;4.82;;;3.80;;
42338;SDS011;27993;45.392;10.918;2022-09-06T13:46:43;7.15;;;4.43;;
42338;SDS011;27993;45.392;10.918;2022-09-06T13:49:13;4.68;;;3.97;;
42338;SDS011;27993;45.392;10.918;2022-09-06T13:51:44;12.80;;;5.10;;
42338;SDS011;27993;45.392;10.918;2022-09-06T13:54:15;5.10;;;3.87;;
42338;SDS011;27993;45.392;10.918;2022-09-06T13:56:45;10.25;;;3.83;;
42338;SDS011;27993;45.392;10.918;2022-09-06T13:59:17;4.30;;;3.58;;
42338;SDS011;27993;45.392;10.918;2022-09-06T14:01:48;9.05;;;3.67;;
42338;SDS011;27993;45.392;10.918;2022-09-06T14:04:32;6.32;;;3.78;;
42338;SDS011;27993;45.392;10.918;2022-09-06T14:07:03;7.93;;;4.12;;
42338;SDS011;27993;45.392;10.918;2022-09-06T14:09:34;6.20;;;3.85;;
42338;SDS011;27993;45.392;10.918;2022-09-06T14:12:06;4.78;;;3.60;;
42338;SDS011;27993;45.392;10.918;2022-09-06T14:14:39;4.65;;;3.42;;
42338;SDS011;27993;45.392;10.918;2022-09-06T14:17:09;7.78;;;4.37;;
42338;SDS011;27993;45.392;10.918;2022-09-06T14:19:40;7.82;;;4.40;;
42338;SDS011;27993;45.392;10.918;2022-09-06T14:22:12;8.55;;;3.85;;
42338;SDS011;27993;45.392;10.918;2022-09-06T14:24:42;5.47;;;4.00;;
42338;SDS011;27993;45.392;10.918;2022-09-06T14:27:13;12.07;;;4.03;;
42338;SDS011;27993;45.392;10.918;2022-09-06T14:29:44;6.18;;;3.58;;
42338;SDS011;27993;45.392;10.918;2022-09-06T14:32:14;13.13;;;3.83;;
42338;SDS011;27993;45.392;10.918;2022-09-06T14:34:46;5.70;;;3.92;;
42338;SDS011;27993;45.392;10.918;2022-09-06T14:37:16;7.37;;;3.58;;
42338;SDS011;27993;45.392;10.918;2022-09-06T14:39:47;15.20;;;4.07;;
42338;SDS011;27993;45.392;10.918;2022-09-06T14:42:18;4.47;;;3.75;;
42338;SDS011;27993;45.392;10.918;2022-09-06T14:44:51;5.75;;;3.78;;
42338;SDS011;27993;45.392;10.918;2022-09-06T14:47:23;7.30;;;3.40;;
42338;SDS011;27993;45.392;10.918;2022-09-06T14:49:53;6.68;;;3.70;;
42338;SDS011;27993;45.392;10.918;2022-09-06T14:52:24;5.12;;;3.25;;
42338;SDS011;27993;45.392;10.918;2022-09-06T14:54:55;5.12;;;3.28;;
42338;SDS011;27993;45.392;10.918;2022-09-06T14:57:25;6.65;;;3.67;;
42338;SDS011;27993;45.392;10.918;2022-09-06T14:59:56;4.22;;;3.17;;
42338;SDS011;27993;45.392;10.918;2022-09-06T15:02:27;5.93;;;3.12;;
42338;SDS011;27993;45.392;10.918;2022-09-06T15:04:58;5.03;;;3.30;;
42338;SDS011;27993;45.392;10.918;2022-09-06T15:07:29;5.43;;;3.70;;
42338;SDS011;27993;45.392;10.918;2022-09-06T15:10:00;8.65;;;3.30;;
42338;SDS011;27993;45.392;10.918;2022-09-06T15:12:32;6.47;;;3.95;;
42338;SDS011;27993;45.392;10.918;2022-09-06T15:15:03;9.90;;;4.45;;
42338;SDS011;27993;45.392;10.918;2022-09-06T15:17:34;8.38;;;3.53;;
42338;SDS011;27993;45.392;10.918;2022-09-06T15:20:05;9.77;;;3.45;;
42338;SDS011;27993;45.392;10.918;2022-09-06T15:22:37;3.42;;;3.10;;
42338;SDS011;27993;45.392;10.918;2022-09-06T15:25:07;7.00;;;3.30;;
42338;SDS011;27993;45.392;10.918;2022-09-06T15:27:40;4.93;;;3.05;;
42338;SDS011;27993;45.392;10.918;2022-09-06T15:30:10;7.68;;;3.70;;
42338;SDS011;27993;45.392;10.918;2022-09-06T15:32:41;5.00;;;3.10;;
42338;SDS011;27993;45.392;10.918;2022-09-06T15:35:12;7.85;;;3.00;;
42338;SDS011;27993;45.392;10.918;2022-09-06T15:37:43;13.68;;;3.22;;
42338;SDS011;27993;45.392;10.918;2022-09-06T15:40:14;10.93;;;2.95;;
42338;SDS011;27993;45.392;10.918;2022-09-06T15:42:45;11.20;;;3.40;;
42338;SDS011;27993;45.392;10.918;2022-09-06T15:45:16;5.97;;;3.55;;
42338;SDS011;27993;45.392;10.918;2022-09-06T15:47:46;10.13;;;3.20;;
42338;SDS011;27993;45.392;10.918;2022-09-06T15:50:17;4.47;;;3.25;;
42338;SDS011;27993;45.392;10.918;2022-09-06T15:52:48;6.75;;;3.70;;
42338;SDS011;27993;45.392;10.918;2022-09-06T15:55:19;3.90;;;2.92;;
42338;SDS011;27993;45.392;10.918;2022-09-06T15:58:08;10.20;;;3.60;;
42338;SDS011;27993;45.392;10.918;2022-09-06T16:00:39;8.20;;;3.65;;
42338;SDS011;27993;45.392;10.918;2022-09-06T16:03:10;4.37;;;3.40;;
42338;SDS011;27993;45.392;10.918;2022-09-06T16:05:41;6.00;;;3.30;;
42338;SDS011;27993;45.392;10.918;2022-09-06T16:08:12;5.87;;;2.87;;
42338;SDS011;27993;45.392;10.918;2022-09-06T16:10:42;4.15;;;3.20;;
42338;SDS011;27993;45.392;10.918;2022-09-06T16:13:13;7.20;;;3.30;;
42338;SDS011;27993;45.392;10.918;2022-09-06T16:15:54;23.83;;;4.30;;
42338;SDS011;27993;45.392;10.918;2022-09-06T16:18:32;8.05;;;3.35;;
42338;SDS011;27993;45.392;10.918;2022-09-06T16:23:41;6.07;;;3.37;;
42338;SDS011;27993;45.392;10.918;2022-09-06T16:26:16;7.18;;;4.12;;
42338;SDS011;27993;45.392;10.918;2022-09-06T16:28:48;6.70;;;3.55;;
42338;SDS011;27993;45.392;10.918;2022-09-06T16:31:20;5.07;;;3.53;;
42338;SDS011;27993;45.392;10.918;2022-09-06T16:33:51;4.20;;;3.62;;
42338;SDS011;27993;45.392;10.918;2022-09-06T16:36:23;11.90;;;3.55;;
42338;SDS011;27993;45.392;10.918;2022-09-06T16:38:54;4.25;;;3.58;;
42338;SDS011;27993;45.392;10.918;2022-09-06T16:41:27;12.00;;;4.15;;
42338;SDS011;27993;45.392;10.918;2022-09-06T16:44:08;6.35;;;4.07;;
42338;SDS011;27993;45.392;10.918;2022-09-06T16:46:45;4.50;;;3.42;;
42338;SDS011;27993;45.392;10.918;2022-09-06T16:49:18;4.22;;;3.47;;
42338;SDS011;27993;45.392;10.918;2022-09-06T16:51:49;5.68;;;4.15;;
42338;SDS011;27993;45.392;10.918;2022-09-06T16:54:20;3.83;;;3.40;;
42338;SDS011;27993;45.392;10.918;2022-09-06T16:56:50;8.68;;;4.32;;
42338;SDS011;27993;45.392;10.918;2022-09-06T16:59:21;3.60;;;2.72;;
42338;SDS011;27993;45.392;10.918;2022-09-06T17:01:52;7.55;;;3.20;;
42338;SDS011;27993;45.392;10.918;2022-09-06T17:04:24;16.48;;;4.43;;
42338;SDS011;27993;45.392;10.918;2022-09-06T17:06:55;5.82;;;3.70;;
42338;SDS011;27993;45.392;10.918;2022-09-06T17:09:26;11.10;;;3.37;;
42338;SDS011;27993;45.392;10.918;2022-09-06T17:11:56;10.07;;;4.05;;
42338;SDS011;27993;45.392;10.918;2022-09-06T17:14:27;10.60;;;4.05;;
42338;SDS011;27993;45.392;10.918;2022-09-06T17:16:58;9.45;;;3.87;;
42338;SDS011;27993;45.392;10.918;2022-09-06T17:19:36;3.90;;;3.33;;
42338;SDS011;27993;45.392;10.918;2022-09-06T17:22:10;5.93;;;2.97;;
42338;SDS011;27993;45.392;10.918;2022-09-06T17:24:41;12.48;;;3.78;;
42338;SDS011;27993;45.392;10.918;2022-09-06T17:27:12;16.00;;;4.70;;
42338;SDS011;27993;45.392;10.918;2022-09-06T17:29:43;9.93;;;4.22;;
42338;SDS011;27993;45.392;10.918;2022-09-06T17:32:14;16.35;;;4.10;;
42338;SDS011;27993;45.392;10.918;2022-09-06T17:34:44;9.73;;;4.00;;
42338;SDS011;27993;45.392;10.918;2022-09-06T17:37:15;12.77;;;4.10;;
42338;SDS011;27993;45.392;10.918;2022-09-06T17:39:46;7.43;;;3.55;;
42338;SDS011;27993;45.392;10.918;2022-09-06T17:42:16;8.85;;;3.37;;
42338;SDS011;27993;45.392;10.918;2022-09-06T17:44:47;4.57;;;3.97;;
42338;SDS011;27993;45.392;10.918;2022-09-06T17:47:17;20.40;;;5.85;;
42338;SDS011;27993;45.392;10.918;2022-09-06T17:49:48;4.87;;;3.87;;
42338;SDS011;27993;45.392;10.918;2022-09-06T17:52:19;10.77;;;3.28;;
42338;SDS011;27993;45.392;10.918;2022-09-06T17:54:50;8.05;;;3.78;;
42338;SDS011;27993;45.392;10.918;2022-09-06T17:57:20;20.52;;;4.35;;
42338;SDS011;27993;45.392;10.918;2022-09-06T17:59:51;11.73;;;4.47;;
42338;SDS011;27993;45.392;10.918;2022-09-06T18:02:22;6.30;;;4.37;;
42338;SDS011;27993;45.392;10.918;2022-09-06T18:04:52;6.10;;;4.25;;
42338;SDS011;27993;45.392;10.918;2022-09-06T18:07:23;12.05;;;3.95;;
42338;SDS011;27993;45.392;10.918;2022-09-06T18:09:54;14.85;;;4.68;;
42338;SDS011;27993;45.392;10.918;2022-09-06T18:12:24;7.03;;;4.45;;
42338;SDS011;27993;45.392;10.918;2022-09-06T18:14:57;14.38;;;5.05;;
42338;SDS011;27993;45.392;10.918;2022-09-06T18:17:28;9.65;;;4.90;;
42338;SDS011;27993;45.392;10.918;2022-09-06T18:19:59;13.05;;;5.07;;
42338;SDS011;27993;45.392;10.918;2022-09-06T18:22:30;15.32;;;5.60;;
42338;SDS011;27993;45.392;10.918;2022-09-06T18:25:01;6.60;;;4.45;;
42338;SDS011;27993;45.392;10.918;2022-09-06T18:27:32;12.37;;;5.03;;
42338;SDS011;27993;45.392;10.918;2022-09-06T18:30:03;10.43;;;4.18;;
42338;SDS011;27993;45.392;10.918;2022-09-06T18:32:34;9.13;;;4.95;;
42338;SDS011;27993;45.392;10.918;2022-09-06T18:35:05;6.05;;;4.65;;
42338;SDS011;27993;45.392;10.918;2022-09-06T18:37:37;6.22;;;4.57;;
42338;SDS011;27993;45.392;10.918;2022-09-06T18:40:08;7.22;;;4.90;;
42338;SDS011;27993;45.392;10.918;2022-09-06T18:42:42;9.70;;;4.87;;
42338;SDS011;27993;45.392;10.918;2022-09-06T18:45:13;8.10;;;5.05;;
42338;SDS011;27993;45.392;10.918;2022-09-06T18:47:44;11.77;;;5.15;;